Terminal Aerodrome Forecast
Issued by NWS

Home | Current Version | Previous Version | Text Only | Print | Product List | Glossary On
Versions: 1 2 3 4 5 6 7 8 9 10 11 12 13 14 15 16 17
000
FTUS43 KGRR 301736
TAFJXN
TAF
KJXN 301736Z 3018/3118 24005KT P6SM BKN015
     FM302000 26005KT P6SM BKN025
     FM310300 00000KT 5SM BR SCT025
     FM310900 00000KT 1 1/2SM BR BKN005=

USA.gov is the U.S. government's official web portal to all federal, state and local government web resources and services.